createdAt,value
2023-05-16T00:00:50.492Z,0.44
2023-05-16T00:01:50.527Z,0.62
2023-05-16T00:02:50.652Z,0.46
2023-05-16T00:03:50.612Z,0.31
2023-05-16T00:04:50.556Z,0.31
2023-05-16T00:05:50.567Z,0.43
2023-05-16T00:06:50.688Z,0.31
2023-05-16T00:07:50.566Z,0.44
2023-05-16T00:08:50.603Z,0.60
2023-05-16T00:09:50.594Z,0.57
2023-05-16T00:10:50.612Z,0.65
2023-05-16T00:11:50.620Z,0.49
2023-05-16T00:12:50.567Z,0.70
2023-05-16T00:13:50.602Z,0.44
2023-05-16T00:14:50.575Z,0.53
2023-05-16T00:15:50.617Z,0.49
2023-05-16T00:16:50.666Z,0.51
2023-05-16T00:17:50.608Z,0.55
2023-05-16T00:18:50.644Z,0.40
2023-05-16T00:19:50.604Z,0.61
2023-05-16T00:20:50.630Z,0.55
2023-05-16T00:21:50.617Z,0.32
2023-05-16T00:22:50.662Z,0.43
2023-05-16T00:23:50.585Z,0.51
2023-05-16T00:24:50.600Z,0.48
2023-05-16T00:25:50.592Z,0.47
2023-05-16T00:26:50.587Z,0.22
2023-05-16T00:27:50.580Z,0.56
2023-05-16T00:28:50.625Z,0.44
2023-05-16T00:29:50.615Z,0.61
2023-05-16T00:30:50.577Z,0.36
2023-05-16T00:31:50.623Z,0.28
2023-05-16T00:32:50.625Z,0.55
2023-05-16T00:33:50.596Z,0.44
2023-05-16T00:34:50.856Z,0.38
2023-05-16T00:35:50.583Z,0.47
2023-05-16T00:36:50.607Z,0.67
2023-05-16T00:37:50.596Z,0.69
2023-05-16T00:38:50.613Z,0.53
2023-05-16T00:39:50.596Z,0.32
2023-05-16T00:40:50.645Z,0.53
2023-05-16T00:41:50.617Z,0.49
2023-05-16T00:42:50.638Z,0.46
2023-05-16T00:43:50.637Z,0.36
2023-05-16T00:44:50.640Z,0.54
2023-05-16T00:45:50.703Z,0.35
2023-05-16T00:46:50.687Z,0.48
2023-05-16T00:47:50.713Z,0.39
2023-05-16T00:48:50.706Z,0.54
2023-05-16T00:49:50.704Z,0.58
2023-05-16T00:50:50.712Z,0.30
2023-05-16T00:51:50.720Z,0.38
2023-05-16T00:52:50.741Z,0.29
2023-05-16T00:53:50.742Z,0.41
2023-05-16T00:54:50.758Z,0.63
2023-05-16T00:55:50.775Z,0.44
2023-05-16T00:56:50.719Z,0.48
2023-05-16T00:57:50.762Z,0.36
2023-05-16T00:58:50.775Z,0.53
2023-05-16T00:59:50.782Z,0.57
2023-05-16T01:00:50.793Z,0.59
2023-05-16T01:01:50.899Z,0.50
2023-05-16T01:02:50.899Z,0.44
2023-05-16T01:03:50.948Z,0.44
2023-05-16T01:04:50.857Z,0.42
2023-05-16T01:05:50.862Z,0.54
2023-05-16T01:06:50.830Z,0.40
2023-05-16T01:07:50.894Z,0.40
2023-05-16T01:08:50.902Z,0.45
2023-05-16T01:09:50.995Z,0.56
2023-05-16T01:10:51.024Z,0.53
2023-05-16T01:11:51.021Z,0.32
2023-05-16T01:12:51.036Z,0.51
2023-05-16T01:13:51.056Z,0.33
2023-05-16T01:14:51.051Z,0.38
2023-05-16T01:15:51.144Z,0.47
2023-05-16T01:16:51.103Z,0.41
2023-05-16T01:17:51.136Z,0.31
2023-05-16T01:18:51.178Z,0.46
2023-05-16T01:19:51.134Z,0.38
2023-05-16T01:20:51.238Z,0.57
2023-05-16T01:21:51.236Z,0.39
2023-05-16T01:22:51.223Z,0.63
2023-05-16T01:23:51.280Z,0.62
2023-05-16T01:24:51.246Z,0.72
2023-05-16T01:25:51.400Z,0.44
2023-05-16T01:26:51.337Z,0.46
2023-05-16T01:27:51.330Z,0.36
2023-05-16T01:28:51.321Z,0.36
2023-05-16T01:29:51.391Z,0.45
2023-05-16T01:30:51.450Z,0.41
2023-05-16T01:31:51.544Z,0.51
2023-05-16T01:32:51.536Z,0.44
2023-05-16T01:33:51.485Z,0.46
2023-05-16T01:34:51.520Z,0.43
2023-05-16T01:35:51.560Z,0.80
2023-05-16T01:36:51.612Z,0.41
2023-05-16T01:37:51.606Z,0.46
2023-05-16T01:38:51.609Z,0.64
2023-05-16T01:39:51.625Z,0.35
2023-05-16T01:40:51.654Z,0.45
2023-05-16T01:41:51.719Z,0.62
2023-05-16T01:42:51.754Z,0.52
2023-05-16T01:43:51.768Z,0.43
2023-05-16T01:44:51.742Z,0.50
2023-05-16T01:45:51.789Z,0.64
2023-05-16T01:46:51.897Z,0.46
2023-05-16T01:47:51.929Z,0.39
2023-05-16T01:48:51.995Z,0.34
2023-05-16T01:49:51.888Z,0.58
2023-05-16T01:50:51.924Z,0.53
2023-05-16T01:51:51.959Z,0.43
2023-05-16T01:52:52.009Z,0.45
2023-05-16T01:53:52.001Z,0.51
2023-05-16T01:54:52.041Z,0.38
2023-05-16T01:55:52.019Z,0.57
2023-05-16T01:56:52.064Z,0.58
2023-05-16T01:57:52.089Z,0.47
2023-05-16T01:58:52.099Z,0.52
2023-05-16T01:59:52.085Z,0.47
2023-05-16T02:00:52.150Z,0.49
2023-05-16T02:01:52.118Z,0.51
2023-05-16T02:02:52.197Z,0.46
2023-05-16T02:03:52.196Z,0.37
2023-05-16T02:04:52.177Z,0.52
2023-05-16T02:05:52.220Z,0.48
2023-05-16T02:06:52.228Z,0.39
2023-05-16T02:07:52.261Z,0.45
2023-05-16T02:08:52.270Z,0.58
2023-05-16T02:09:52.277Z,0.58
2023-05-16T02:10:52.338Z,0.29
2023-05-16T02:11:52.337Z,0.43
2023-05-16T02:12:52.383Z,0.36
2023-05-16T02:13:52.374Z,0.70
2023-05-16T02:14:52.414Z,0.44
2023-05-16T02:15:52.426Z,0.54
2023-05-16T02:16:52.456Z,0.38
2023-05-16T02:17:52.569Z,0.28
2023-05-16T02:18:52.471Z,0.31
2023-05-16T02:19:52.502Z,0.46
2023-05-16T02:20:52.460Z,0.34
2023-05-16T02:21:52.531Z,0.47
2023-05-16T02:22:52.567Z,0.25
2023-05-16T02:23:52.571Z,0.54
2023-05-16T02:24:52.568Z,0.47
2023-05-16T02:25:52.573Z,0.34
2023-05-16T02:26:52.607Z,0.48
2023-05-16T02:27:52.668Z,0.29
2023-05-16T02:28:52.636Z,0.44
2023-05-16T02:29:52.653Z,0.49
2023-05-16T02:30:52.704Z,0.34
2023-05-16T02:31:52.692Z,0.52
2023-05-16T02:32:52.789Z,0.46
2023-05-16T02:33:52.747Z,0.33
2023-05-16T02:34:52.761Z,0.46
2023-05-16T02:35:52.770Z,0.42
2023-05-16T02:36:52.847Z,0.42
2023-05-16T02:37:52.847Z,0.33
2023-05-16T02:38:52.855Z,0.54
2023-05-16T02:39:52.871Z,0.36
2023-05-16T02:40:52.904Z,0.38
2023-05-16T02:41:52.909Z,0.44
2023-05-16T02:42:52.956Z,0.58
2023-05-16T02:43:52.957Z,0.51
2023-05-16T02:44:52.998Z,0.57
2023-05-16T02:45:53.060Z,0.50
2023-05-16T02:46:53.057Z,0.47
2023-05-16T02:47:53.117Z,0.46
2023-05-16T02:48:53.068Z,0.53
2023-05-16T02:49:53.092Z,0.34
2023-05-16T02:50:53.105Z,0.48
2023-05-16T02:51:53.137Z,0.45
2023-05-16T02:52:53.149Z,0.42
2023-05-16T02:53:53.197Z,0.36
2023-05-16T02:55:53.245Z,0.51
2023-05-16T02:56:53.212Z,0.47
2023-05-16T02:57:53.184Z,0.41
2023-05-16T02:58:53.203Z,0.37
2023-05-16T02:59:53.210Z,0.52
2023-05-16T03:00:53.186Z,0.76
2023-05-16T03:01:53.195Z,0.45
2023-05-16T03:02:53.243Z,0.31
2023-05-16T03:03:53.307Z,0.38
2023-05-16T03:04:53.163Z,0.38
2023-05-16T03:05:53.130Z,0.38
2023-05-16T03:06:53.112Z,0.22
2023-05-16T03:07:53.114Z,0.66
2023-05-16T03:08:53.122Z,0.43
2023-05-16T03:09:53.089Z,0.60
2023-05-16T03:10:53.101Z,0.35
2023-05-16T03:11:53.112Z,0.38
2023-05-16T03:12:53.080Z,0.42
2023-05-16T03:13:53.109Z,0.40
2023-05-16T03:14:53.101Z,0.55
2023-05-16T03:15:53.077Z,0.25
2023-05-16T03:16:53.085Z,0.53
2023-05-16T03:17:53.109Z,0.45
2023-05-16T03:18:53.127Z,0.38
2023-05-16T03:19:53.064Z,0.30
2023-05-16T03:20:53.130Z,0.33
2023-05-16T03:21:53.063Z,0.29
2023-05-16T03:22:53.049Z,0.42
2023-05-16T03:23:53.048Z,0.38
2023-05-16T03:24:53.066Z,0.33
2023-05-16T03:25:53.006Z,0.38
2023-05-16T03:26:53.006Z,0.65
2023-05-16T03:27:53.015Z,0.35
2023-05-16T03:28:52.997Z,0.27
2023-05-16T03:29:52.999Z,0.55
2023-05-16T03:30:53.003Z,0.32
2023-05-16T03:31:53.012Z,0.34
2023-05-16T03:32:53.005Z,0.45
2023-05-16T03:33:52.947Z,0.46
2023-05-16T03:34:52.962Z,0.43
2023-05-16T03:35:52.979Z,0.45
2023-05-16T03:36:52.948Z,0.47
2023-05-16T03:37:52.946Z,0.36
2023-05-16T03:38:52.911Z,0.56
2023-05-16T03:39:52.929Z,0.15
2023-05-16T03:40:52.935Z,0.37
2023-05-16T03:41:52.900Z,0.36
2023-05-16T03:42:52.920Z,0.45
2023-05-16T03:43:52.880Z,0.30
2023-05-16T03:44:52.893Z,0.42
2023-05-16T03:45:52.890Z,0.53
2023-05-16T03:46:52.923Z,0.34
2023-05-16T03:47:52.912Z,0.42
2023-05-16T03:48:52.852Z,0.54
2023-05-16T03:49:52.864Z,0.51
2023-05-16T03:50:52.833Z,0.30
2023-05-16T03:51:52.834Z,0.41
2023-05-16T03:52:52.817Z,0.59
2023-05-16T03:53:52.826Z,0.37
2023-05-16T03:54:52.821Z,0.35
2023-05-16T03:55:52.825Z,0.38
2023-05-16T03:56:52.812Z,0.54
2023-05-16T03:57:52.771Z,0.57
2023-05-16T03:58:52.795Z,0.54
2023-05-16T03:59:52.814Z,0.43
2023-05-16T04:00:52.757Z,0.54
2023-05-16T04:01:52.821Z,0.33
2023-05-16T04:02:52.882Z,0.46
2023-05-16T04:03:52.747Z,0.31
2023-05-16T04:04:52.759Z,0.50
2023-05-16T04:05:52.841Z,0.67
2023-05-16T04:06:52.751Z,0.56
2023-05-16T04:07:52.703Z,0.75
2023-05-16T04:08:52.725Z,0.89
2023-05-16T04:09:52.776Z,0.69
2023-05-16T04:10:52.833Z,0.54
2023-05-16T04:11:52.869Z,0.59
2023-05-16T04:12:52.926Z,0.57
2023-05-16T04:13:53.156Z,0.81
2023-05-16T04:14:53.036Z,0.87
2023-05-16T04:15:53.071Z,0.82
2023-05-16T04:16:53.205Z,1.10
2023-05-16T04:17:53.242Z,0.72
2023-05-16T04:18:53.332Z,0.52
2023-05-16T04:19:53.345Z,0.90
2023-05-16T04:20:53.386Z,0.74
2023-05-16T04:21:53.452Z,0.78
2023-05-16T04:22:53.587Z,0.68
2023-05-16T04:23:53.570Z,0.84
2023-05-16T04:24:53.647Z,0.77
2023-05-16T04:25:53.703Z,0.86
2023-05-16T04:26:53.768Z,0.66
2023-05-16T04:27:53.807Z,0.91
2023-05-16T04:28:53.884Z,1.01
2023-05-16T04:29:53.940Z,0.82
2023-05-16T04:30:53.954Z,0.97
2023-05-16T04:31:54.101Z,1.09
2023-05-16T04:32:54.061Z,1.21
2023-05-16T04:33:54.021Z,0.75
2023-05-16T04:34:54.163Z,0.99
2023-05-16T04:35:54.084Z,0.90
2023-05-16T04:36:54.075Z,0.85
2023-05-16T04:37:54.140Z,0.84
2023-05-16T04:38:54.158Z,0.81
2023-05-16T04:39:54.167Z,0.61
2023-05-16T04:40:54.195Z,0.90
2023-05-16T04:41:54.283Z,0.77
2023-05-16T04:42:54.243Z,0.65
2023-05-16T04:43:54.299Z,0.92
2023-05-16T04:44:54.333Z,0.87
2023-05-16T04:45:54.420Z,0.88
2023-05-16T04:46:54.454Z,1.00
2023-05-16T04:47:54.414Z,0.85
2023-05-16T04:48:54.461Z,1.28
2023-05-16T04:49:54.473Z,0.76
2023-05-16T04:50:54.509Z,0.99
2023-05-16T04:51:54.535Z,1.10
2023-05-16T04:52:56.387Z,0.95
2023-05-16T04:53:54.598Z,0.60
2023-05-16T04:54:54.602Z,0.96
2023-05-16T04:55:54.682Z,1.02
2023-05-16T04:56:54.684Z,1.04
2023-05-16T04:57:54.683Z,0.88
2023-05-16T04:58:54.743Z,0.83
2023-05-16T04:59:54.770Z,0.75
2023-05-16T05:00:54.811Z,0.61
2023-05-16T05:01:54.873Z,1.06
2023-05-16T05:02:54.911Z,0.91
2023-05-16T05:03:54.871Z,1.01
2023-05-16T05:04:54.922Z,0.83
2023-05-16T05:05:54.943Z,0.75
2023-05-16T05:06:54.952Z,0.70
2023-05-16T05:07:55.004Z,0.83
2023-05-16T05:08:55.009Z,0.96
2023-05-16T05:09:55.069Z,0.81
2023-05-16T05:10:55.050Z,0.93
2023-05-16T05:11:55.100Z,0.73
2023-05-16T05:12:55.156Z,0.84
2023-05-16T05:13:55.144Z,0.82
2023-05-16T05:14:55.216Z,0.96
2023-05-16T05:15:55.231Z,0.78
2023-05-16T05:16:55.258Z,0.79
2023-05-16T05:17:55.327Z,0.74
2023-05-16T05:18:55.398Z,0.66
2023-05-16T05:19:55.310Z,0.96
2023-05-16T05:20:55.368Z,1.06
2023-05-16T05:21:55.399Z,0.80
2023-05-16T05:22:55.411Z,1.04
2023-05-16T05:23:55.450Z,0.96
2023-05-16T05:24:55.489Z,0.65
2023-05-16T05:25:55.492Z,0.81
2023-05-16T05:26:55.518Z,0.77
2023-05-16T05:27:55.560Z,0.64
2023-05-16T05:29:04.446Z,0.64
2023-05-16T05:29:56.581Z,0.69
2023-05-16T05:30:55.575Z,0.60
2023-05-16T05:31:55.581Z,0.93
2023-05-16T05:32:55.585Z,0.63
2023-05-16T05:33:55.547Z,0.84
2023-05-16T05:34:55.583Z,1.23
2023-05-16T05:35:55.531Z,1.08
2023-05-16T05:36:55.513Z,0.73
2023-05-16T05:37:55.522Z,0.75
2023-05-16T05:38:55.469Z,1.09
2023-05-16T05:39:55.635Z,1.03
2023-05-16T05:40:55.538Z,1.27
2023-05-16T05:41:55.475Z,1.58
2023-05-16T05:42:55.513Z,1.36
2023-05-16T05:43:55.467Z,1.12
2023-05-16T05:44:55.470Z,1.60
2023-05-16T05:45:55.556Z,1.36
2023-05-16T05:46:55.529Z,1.28
2023-05-16T05:47:55.893Z,1.51
2023-05-16T05:48:55.627Z,1.30
2023-05-16T05:49:55.708Z,1.21
2023-05-16T05:50:55.761Z,1.18
2023-05-16T05:51:55.819Z,1.41
2023-05-16T05:52:55.879Z,1.25
2023-05-16T05:53:55.927Z,1.19
2023-05-16T05:54:55.966Z,2.17
2023-05-16T05:55:56.015Z,1.45
2023-05-16T05:56:56.078Z,1.64
2023-05-16T05:57:56.168Z,1.32
2023-05-16T05:58:56.225Z,1.61
2023-05-16T05:59:56.296Z,1.42
2023-05-16T06:00:56.336Z,1.47
2023-05-16T06:01:56.435Z,1.59
2023-05-16T06:02:56.536Z,1.33
2023-05-16T06:03:56.512Z,1.51
2023-05-16T06:04:56.609Z,1.83
2023-05-16T06:05:56.741Z,1.49
2023-05-16T06:06:56.627Z,1.31
2023-05-16T06:07:56.691Z,1.42
2023-05-16T06:08:56.744Z,1.21
2023-05-16T06:09:56.763Z,1.43
2023-05-16T06:10:56.828Z,1.27
2023-05-16T06:11:56.871Z,1.19
2023-05-16T06:12:56.893Z,1.14
2023-05-16T06:13:56.941Z,1.24
2023-05-16T06:14:57.001Z,1.15
2023-05-16T06:15:57.062Z,1.42
2023-05-16T06:16:57.199Z,1.12
2023-05-16T06:17:57.198Z,1.50
2023-05-16T06:18:57.208Z,1.28
2023-05-16T06:19:57.245Z,1.25
2023-05-16T06:20:57.242Z,1.50
2023-05-16T06:21:57.270Z,1.52
2023-05-16T06:22:57.327Z,1.60
2023-05-16T06:23:57.310Z,2.08
2023-05-16T06:24:57.369Z,1.55
2023-05-16T06:25:57.351Z,1.18
2023-05-16T06:26:57.381Z,1.62
2023-05-16T06:27:57.492Z,1.16
2023-05-16T06:28:57.471Z,1.05
2023-05-16T06:29:57.455Z,2.46
2023-05-16T06:30:57.561Z,1.94
2023-05-16T06:31:57.572Z,1.68
2023-05-16T06:32:57.604Z,1.42
2023-05-16T06:33:57.591Z,1.49
2023-05-16T06:34:57.636Z,1.21
2023-05-16T06:35:57.656Z,0.89
2023-05-16T06:36:57.716Z,1.56
2023-05-16T06:37:57.731Z,1.31
2023-05-16T06:38:57.961Z,1.26
2023-05-16T06:39:57.798Z,1.57
2023-05-16T06:40:57.914Z,1.20
2023-05-16T06:41:57.824Z,1.09
2023-05-16T06:42:57.854Z,1.48
2023-05-16T06:43:57.918Z,1.55
2023-05-16T06:44:57.922Z,1.43
2023-05-16T06:45:58.083Z,1.07
2023-05-16T06:46:58.100Z,1.28
2023-05-16T06:47:58.033Z,1.00
2023-05-16T06:48:58.053Z,1.16
2023-05-16T06:49:58.124Z,1.42
2023-05-16T06:50:58.114Z,1.10
2023-05-16T06:51:58.138Z,1.62
2023-05-16T06:52:58.192Z,1.39
2023-05-16T06:53:58.196Z,0.95
2023-05-16T06:54:58.240Z,1.41
2023-05-16T06:55:58.248Z,1.06
2023-05-16T06:56:58.290Z,1.53
2023-05-16T06:57:58.323Z,1.44
2023-05-16T06:58:58.391Z,1.22
2023-05-16T06:59:58.385Z,1.17
2023-05-16T07:00:58.493Z,1.53
2023-05-16T07:01:58.445Z,1.43
2023-05-16T07:02:58.566Z,1.11
2023-05-16T07:03:58.676Z,1.24
2023-05-16T07:04:58.537Z,1.13
2023-05-16T07:05:58.574Z,1.28
2023-05-16T07:06:58.584Z,0.86
2023-05-16T07:07:58.648Z,1.29
2023-05-16T07:08:58.653Z,1.38
2023-05-16T07:09:58.714Z,0.85
2023-05-16T07:10:58.721Z,1.07
2023-05-16T07:11:58.748Z,1.09
2023-05-16T07:12:59.046Z,1.14
2023-05-16T07:13:58.778Z,1.13
2023-05-16T07:14:58.795Z,1.20
2023-05-16T07:15:58.867Z,1.51
2023-05-16T07:16:58.911Z,1.15
2023-05-16T07:17:58.952Z,1.03
2023-05-16T07:18:58.916Z,1.05
2023-05-16T07:19:58.942Z,1.23
2023-05-16T07:20:58.957Z,1.30
2023-05-16T07:21:58.974Z,1.28
2023-05-16T07:22:58.979Z,1.00
2023-05-16T07:23:59.005Z,1.14
2023-05-16T07:24:59.016Z,1.34
2023-05-16T07:25:59.113Z,1.00
2023-05-16T07:26:59.114Z,1.51
2023-05-16T07:27:59.094Z,1.08
2023-05-16T07:28:59.055Z,1.19
2023-05-16T07:29:59.104Z,0.84
2023-05-16T07:30:59.174Z,1.20
2023-05-16T07:31:59.195Z,1.33
2023-05-16T07:32:59.264Z,1.35
2023-05-16T07:33:59.236Z,1.40
2023-05-16T07:34:59.291Z,1.47
2023-05-16T07:36:12.175Z,1.23
2023-05-16T07:37:00.279Z,1.26
2023-05-16T07:37:59.253Z,1.60
2023-05-16T07:38:59.344Z,1.53
2023-05-16T07:39:59.231Z,1.57
2023-05-16T07:40:59.286Z,1.80
2023-05-16T07:41:59.234Z,1.68
2023-05-16T07:42:59.239Z,1.91
2023-05-16T07:43:59.257Z,1.66
2023-05-16T07:44:59.190Z,1.40
2023-05-16T07:45:59.247Z,1.16
2023-05-16T07:46:59.207Z,1.59
2023-05-16T07:47:59.325Z,1.23
2023-05-16T07:48:59.279Z,1.41
2023-05-16T07:49:59.221Z,1.37
2023-05-16T07:50:59.243Z,1.45
2023-05-16T07:51:59.344Z,1.32
2023-05-16T07:52:59.320Z,1.21
2023-05-16T07:53:59.372Z,1.43
2023-05-16T07:54:59.397Z,1.74
2023-05-16T07:56:00.242Z,1.58
2023-05-16T07:56:59.510Z,1.24
2023-05-16T07:57:59.545Z,1.33
2023-05-16T07:58:59.602Z,1.31
2023-05-16T07:59:59.631Z,1.29
2023-05-16T08:00:59.631Z,0.94
2023-05-16T08:01:59.809Z,1.19
2023-05-16T08:02:59.817Z,1.40
2023-05-16T08:03:59.882Z,1.39
2023-05-16T08:04:59.862Z,1.05
2023-05-16T08:05:59.927Z,1.20
2023-05-16T08:06:59.875Z,1.15
2023-05-16T08:07:59.917Z,1.25
2023-05-16T08:08:59.982Z,1.46
2023-05-16T08:09:59.990Z,1.17
2023-05-16T08:11:00.004Z,1.21
2023-05-16T08:11:59.987Z,1.45
2023-05-16T08:13:00.068Z,0.92
2023-05-16T08:14:00.057Z,1.23
2023-05-16T08:15:00.067Z,1.42
2023-05-16T08:16:00.184Z,1.84
2023-05-16T08:17:00.141Z,1.36
2023-05-16T08:18:00.221Z,1.27
2023-05-16T08:19:00.185Z,1.18
2023-05-16T08:20:00.205Z,1.29
2023-05-16T08:21:00.197Z,1.34
2023-05-16T08:22:00.179Z,1.51
2023-05-16T08:23:00.173Z,1.04
2023-05-16T08:24:00.177Z,1.29
2023-05-16T08:25:00.194Z,1.34
2023-05-16T08:26:00.218Z,1.99
2023-05-16T08:27:00.257Z,2.35
2023-05-16T08:28:00.354Z,2.83
2023-05-16T08:29:00.328Z,2.63
2023-05-16T08:30:00.321Z,2.28
2023-05-16T08:31:00.386Z,2.43
2023-05-16T08:32:00.507Z,2.68
2023-05-16T08:33:00.497Z,2.23
2023-05-16T08:34:00.455Z,2.68
2023-05-16T08:35:00.467Z,3.26
2023-05-16T08:36:00.479Z,2.76
2023-05-16T08:37:00.529Z,2.69
2023-05-16T08:38:00.626Z,2.60
2023-05-16T08:39:00.646Z,2.47
2023-05-16T08:40:00.709Z,2.48
2023-05-16T08:41:00.886Z,2.55
2023-05-16T08:42:00.842Z,2.28
2023-05-16T08:43:00.952Z,2.35
2023-05-16T08:44:00.890Z,2.34
2023-05-16T08:45:00.890Z,2.28
2023-05-16T08:46:00.911Z,1.98
2023-05-16T08:47:00.978Z,2.09
2023-05-16T08:48:01.079Z,1.57
2023-05-16T08:49:01.009Z,1.85
2023-05-16T08:50:01.045Z,1.32
2023-05-16T08:51:01.038Z,1.69
2023-05-16T08:52:01.049Z,2.14
2023-05-16T08:53:01.021Z,1.38
2023-05-16T08:54:01.148Z,1.75
2023-05-16T08:55:10.319Z,1.54
2023-05-16T08:56:02.213Z,1.62
2023-05-16T08:57:01.239Z,1.58
2023-05-16T08:58:01.150Z,1.79
2023-05-16T08:59:01.167Z,1.47
2023-05-16T09:00:01.223Z,1.37
2023-05-16T09:01:01.192Z,1.94
2023-05-16T09:02:01.178Z,1.20
2023-05-16T09:03:01.181Z,1.37
2023-05-16T09:04:01.163Z,1.38
2023-05-16T09:05:01.156Z,1.08
2023-05-16T09:06:01.082Z,1.61
2023-05-16T09:07:01.097Z,1.13
2023-05-16T09:08:01.109Z,0.85
2023-05-16T09:09:01.113Z,1.21
2023-05-16T09:10:01.073Z,1.06
2023-05-16T09:11:01.082Z,1.23
2023-05-16T09:12:01.106Z,1.59
2023-05-16T09:13:01.132Z,1.45
2023-05-16T09:14:01.145Z,1.07
2023-05-16T09:15:01.201Z,1.10
2023-05-16T09:16:01.210Z,1.46
2023-05-16T09:17:01.307Z,1.33
2023-05-16T09:18:01.405Z,1.19
2023-05-16T09:19:01.312Z,0.94
2023-05-16T09:20:01.305Z,1.12
2023-05-16T09:21:01.329Z,1.14
2023-05-16T09:22:01.368Z,1.30
2023-05-16T09:23:01.441Z,0.93
2023-05-16T09:24:01.469Z,1.21
2023-05-16T09:25:01.568Z,1.11
2023-05-16T09:26:01.548Z,1.28
2023-05-16T09:27:01.588Z,1.41
2023-05-16T09:28:02.381Z,0.92
2023-05-16T09:29:01.674Z,0.94
2023-05-16T09:30:01.726Z,1.19
2023-05-16T09:31:01.789Z,1.13
2023-05-16T09:32:01.769Z,1.32
2023-05-16T09:33:01.962Z,1.10
2023-05-16T09:34:01.915Z,1.38
2023-05-16T09:35:01.876Z,1.31
2023-05-16T09:36:01.888Z,1.23
2023-05-16T09:37:02.364Z,1.32
2023-05-16T09:38:01.925Z,1.33
2023-05-16T09:39:01.932Z,1.21
2023-05-16T09:40:01.943Z,1.54
2023-05-16T09:41:01.994Z,1.37
2023-05-16T09:42:01.979Z,1.37
2023-05-16T09:43:02.050Z,1.16
2023-05-16T09:44:02.019Z,0.93
2023-05-16T09:45:02.062Z,1.34
2023-05-16T09:46:02.168Z,1.30
2023-05-16T09:47:02.056Z,1.14
2023-05-16T09:48:02.113Z,1.29
2023-05-16T09:49:02.170Z,1.09
2023-05-16T09:50:02.150Z,1.30
2023-05-16T09:51:02.472Z,0.95
2023-05-16T09:52:02.175Z,1.01
2023-05-16T09:53:02.193Z,1.26
2023-05-16T09:54:02.203Z,1.06
2023-05-16T09:55:02.438Z,1.06
2023-05-16T09:56:02.431Z,1.26
2023-05-16T09:57:03.289Z,1.18
2023-05-16T09:58:02.329Z,1.43
2023-05-16T09:59:02.332Z,0.76
2023-05-16T10:00:02.391Z,1.06
2023-05-16T10:01:02.437Z,1.39
2023-05-16T10:02:02.428Z,1.04
2023-05-16T10:03:04.758Z,1.14
2023-05-16T10:04:02.525Z,1.10
2023-05-16T10:05:05.330Z,1.60
2023-05-16T10:06:02.429Z,1.28
2023-05-16T10:07:02.426Z,1.29
2023-05-16T10:08:02.397Z,0.98
2023-05-16T10:09:03.418Z,1.35
2023-05-16T10:10:02.430Z,1.23
2023-05-16T10:11:02.400Z,1.02
2023-05-16T10:12:02.376Z,1.24
2023-05-16T10:13:02.387Z,1.26
2023-05-16T10:14:02.410Z,1.14
2023-05-16T10:15:02.388Z,1.00
2023-05-16T10:16:02.374Z,1.24
2023-05-16T10:17:02.338Z,1.26
2023-05-16T10:18:02.422Z,0.81
2023-05-16T10:19:02.325Z,1.08
2023-05-16T10:20:02.314Z,1.12
2023-05-16T10:21:02.308Z,1.34
2023-05-16T10:22:02.283Z,0.96
2023-05-16T10:23:02.359Z,1.28
2023-05-16T10:24:02.326Z,0.98
2023-05-16T10:25:02.304Z,1.00
2023-05-16T10:26:02.358Z,1.21
2023-05-16T10:27:02.348Z,2.19
2023-05-16T10:28:02.516Z,1.08
2023-05-16T10:29:02.425Z,1.21
2023-05-16T10:30:02.492Z,1.26
2023-05-16T10:31:02.522Z,1.08
2023-05-16T10:32:02.548Z,1.70
2023-05-16T10:33:02.592Z,1.54
2023-05-16T10:34:02.505Z,1.46
2023-05-16T10:35:02.511Z,1.14
2023-05-16T10:36:02.513Z,1.27
2023-05-16T10:37:02.556Z,1.96
2023-05-16T10:38:02.538Z,1.46
2023-05-16T10:39:02.597Z,1.26
2023-05-16T10:40:02.522Z,1.28
2023-05-16T10:41:02.585Z,1.54
2023-05-16T10:42:02.588Z,1.30
2023-05-16T10:43:02.600Z,1.89
2023-05-16T10:44:02.886Z,1.18
2023-05-16T10:45:05.844Z,1.35
2023-05-16T10:46:02.728Z,1.11
2023-05-16T10:47:02.636Z,1.36
2023-05-16T10:48:02.662Z,1.33
2023-05-16T10:49:02.637Z,1.54
2023-05-16T10:50:02.617Z,1.49
2023-05-16T10:51:02.672Z,1.78
2023-05-16T10:52:02.654Z,1.65
2023-05-16T10:53:02.603Z,1.53
2023-05-16T10:54:02.606Z,1.47
2023-05-16T10:55:02.567Z,1.22
2023-05-16T10:56:02.571Z,1.34
2023-05-16T10:57:02.569Z,1.47
2023-05-16T10:58:02.535Z,1.41
2023-05-16T10:59:02.732Z,1.28
2023-05-16T11:00:02.572Z,1.52
2023-05-16T11:01:02.571Z,1.15
2023-05-16T11:02:02.547Z,1.19
2023-05-16T11:03:02.602Z,1.95
2023-05-16T11:04:02.894Z,1.33
2023-05-16T11:05:02.517Z,1.24
2023-05-16T11:06:02.496Z,1.24
2023-05-16T11:07:02.521Z,1.55
2023-05-16T11:08:02.503Z,1.12
2023-05-16T11:09:02.479Z,1.07
2023-05-16T11:10:02.489Z,1.27
2023-05-16T11:11:02.444Z,1.76
2023-05-16T11:12:02.457Z,1.16
2023-05-16T11:13:02.451Z,1.40
2023-05-16T11:14:02.444Z,1.57
2023-05-16T11:15:02.434Z,1.28
2023-05-16T11:16:02.448Z,1.45
2023-05-16T11:17:02.562Z,1.38
2023-05-16T11:18:02.876Z,1.28
2023-05-16T11:19:02.452Z,1.83
2023-05-16T11:20:02.426Z,1.31
2023-05-16T11:21:02.417Z,1.76
2023-05-16T11:22:02.423Z,1.09
2023-05-16T11:23:02.418Z,1.29
2023-05-16T11:24:02.358Z,2.06
2023-05-16T11:25:02.370Z,1.41
2023-05-16T11:26:02.353Z,1.74
2023-05-16T11:27:02.385Z,1.44
2023-05-16T11:28:02.377Z,1.19
2023-05-16T11:29:02.365Z,1.31
2023-05-16T11:30:03.490Z,1.09
2023-05-16T11:31:02.347Z,1.33
2023-05-16T11:32:02.535Z,1.54
2023-05-16T11:33:02.374Z,1.71
2023-05-16T11:34:02.312Z,1.26
2023-05-16T11:35:02.342Z,1.18
2023-05-16T11:36:14.679Z,1.57
2023-05-16T11:37:03.301Z,1.35
2023-05-16T11:38:02.282Z,1.05
2023-05-16T11:39:02.268Z,0.97
2023-05-16T11:40:02.661Z,1.31
2023-05-16T11:41:02.255Z,1.52
2023-05-16T11:42:02.273Z,1.42
2023-05-16T11:43:03.830Z,1.59
2023-05-16T11:44:02.268Z,1.35
2023-05-16T11:45:02.261Z,1.32
2023-05-16T11:46:02.204Z,1.50
2023-05-16T11:47:02.413Z,1.13
2023-05-16T11:48:02.270Z,1.22
2023-05-16T11:49:02.215Z,1.44
2023-05-16T11:50:02.236Z,1.52
2023-05-16T11:51:02.216Z,1.28
2023-05-16T11:52:02.212Z,1.31
2023-05-16T11:53:02.346Z,1.13
2023-05-16T11:54:02.158Z,1.26
2023-05-16T11:55:02.176Z,1.38
2023-05-16T11:56:02.190Z,1.34
2023-05-16T11:57:02.172Z,1.06
2023-05-16T11:58:02.218Z,1.65
2023-05-16T11:59:02.128Z,1.46
2023-05-16T12:00:02.124Z,1.37
2023-05-16T12:01:02.134Z,1.45
2023-05-16T12:02:02.136Z,1.29
2023-05-16T12:03:02.165Z,1.00
2023-05-16T12:04:02.277Z,1.03
2023-05-16T12:05:02.107Z,1.21
2023-05-16T12:06:02.118Z,1.23
2023-05-16T12:07:02.083Z,1.02
2023-05-16T12:08:02.083Z,1.12
2023-05-16T12:09:02.066Z,1.02
2023-05-16T12:10:02.097Z,1.28
2023-05-16T12:11:02.096Z,1.50
2023-05-16T12:12:02.088Z,1.04
2023-05-16T12:13:02.053Z,1.44
2023-05-16T12:14:02.102Z,1.18
2023-05-16T12:15:02.038Z,1.78
2023-05-16T12:16:02.072Z,1.08
2023-05-16T12:17:02.166Z,1.11
2023-05-16T12:18:02.090Z,1.37
2023-05-16T12:19:02.114Z,1.05
2023-05-16T12:20:02.076Z,1.10
2023-05-16T12:21:02.025Z,1.11
2023-05-16T12:22:02.028Z,1.39
2023-05-16T12:23:02.044Z,0.99
2023-05-16T12:24:02.000Z,1.42
2023-05-16T12:25:01.962Z,0.99
2023-05-16T12:26:01.977Z,1.37
2023-05-16T12:27:01.948Z,1.37
2023-05-16T12:28:02.036Z,1.14
2023-05-16T12:29:01.966Z,1.30
2023-05-16T12:30:02.050Z,1.09
2023-05-16T12:31:02.101Z,1.03
2023-05-16T12:32:02.248Z,1.18
2023-05-16T12:33:04.216Z,1.05
2023-05-16T12:34:02.194Z,1.05
2023-05-16T12:35:02.250Z,0.86
2023-05-16T12:36:02.238Z,1.10
2023-05-16T12:37:02.242Z,1.03
2023-05-16T12:38:02.170Z,0.95
2023-05-16T12:39:02.175Z,1.36
2023-05-16T12:40:02.123Z,1.15
2023-05-16T12:41:02.152Z,1.07
2023-05-16T12:42:02.143Z,1.17
2023-05-16T12:43:02.135Z,0.92
2023-05-16T12:44:02.138Z,1.15
2023-05-16T12:45:02.169Z,1.45
2023-05-16T12:46:02.161Z,1.02
2023-05-16T12:47:02.082Z,1.03
2023-05-16T12:48:02.123Z,0.65
2023-05-16T12:49:02.091Z,1.22
2023-05-16T12:50:02.071Z,0.96
2023-05-16T12:51:02.072Z,1.33
2023-05-16T12:52:02.641Z,0.99
2023-05-16T12:53:02.050Z,0.95
2023-05-16T12:54:09.734Z,1.04
2023-05-16T12:55:03.024Z,1.37
2023-05-16T12:56:02.041Z,0.94
2023-05-16T12:57:02.039Z,0.90
2023-05-16T12:58:02.110Z,1.01
2023-05-16T12:59:02.047Z,1.00
2023-05-16T13:00:02.006Z,1.16
2023-05-16T13:01:01.992Z,1.31
2023-05-16T13:02:02.035Z,1.16
2023-05-16T13:03:02.138Z,1.17
2023-05-16T13:04:02.160Z,1.09
2023-05-16T13:05:01.971Z,1.10
2023-05-16T13:06:01.989Z,0.97
2023-05-16T13:07:02.057Z,1.14
2023-05-16T13:08:02.237Z,1.11
2023-05-16T13:09:02.046Z,0.92
2023-05-16T13:10:02.181Z,1.29
2023-05-16T13:11:02.138Z,0.98
2023-05-16T13:12:02.200Z,1.19
2023-05-16T13:13:02.233Z,1.14
2023-05-16T13:14:02.265Z,1.24
2023-05-16T13:15:02.321Z,1.17
2023-05-16T13:16:02.383Z,1.13
2023-05-16T13:17:02.374Z,1.36
2023-05-16T13:18:02.472Z,1.33
2023-05-16T13:19:02.523Z,1.37
2023-05-16T13:20:02.493Z,1.12